Flight Track Log - Related Links

Times and Time Zones

All times are in EDT time to prevent confusion due to time zone crossing. See the TCF3494 flight status page for this flight to view local times or setup timezone preferences in your user account.

Time Position Orientation Groundspeed Altitude Reporting Facility
EDT Latitude Longitude Course Direction KTS MPH feet Rate Location/Type
Mon 06:16:05 PM 41.9333 -87.9000 114° Southeast 176 203 2,000  Level Chicago TRACON
Mon 06:17:06 PM 41.9167 -87.8500 114° Southeast 204 235 3,500 2,201 Climbing Chicago TRACON
Mon 06:19:24 PM 41.9197 -87.6303 89° East 281 323 9,300 2,610 Climbing Chicago Center
Mon 06:20:26 PM 41.9244 -87.5167 87° East 300 345 12,200 2,371 Climbing Chicago Center
Mon 06:21:28 PM 41.9294 -87.3947 87° East 323 372 14,200 2,112 Climbing Chicago Center
Mon 06:22:31 PM 41.9367 -87.2639 86° East 349 402 16,600 2,352 Climbing Chicago Center
Mon 06:23:33 PM 41.9436 -87.0989 87° East 367 422 19,100 2,371 Climbing Chicago Center
Mon 06:24:35 PM 41.9475 -86.9575 88° East 378 435 21,500 1,984 Climbing Chicago Center
Mon 06:25:37 PM 41.9478 -86.8133 90° East 386 444 23,200 1,694 Climbing Chicago Center
Mon 06:26:39 PM 41.9497 -86.6731 89° East 403 464 25,000 1,839 Climbing Chicago Center
Mon 06:27:41 PM 41.9531 -86.4964 88° East 395 455 27,000 1,742 Climbing Chicago Center
Mon 06:28:43 PM 41.9547 -86.3414 89° East 413 475 28,600 1,355 Climbing Chicago Center
Mon 06:29:45 PM 41.9533 -86.1883 91° East 411 473 29,800 1,113 Climbing Chicago Center
Mon 06:30:47 PM 41.9386 -86.0319 97° East 420 483 30,900 581 Climbing Chicago Center
Mon 06:31:49 PM 41.9233 -85.8683 97° East 438 504 31,000 48 Climbing Chicago Center
Mon 06:32:51 PM 41.9072 -85.7011 97° East 449 517 31,000  Level Chicago Center
Mon 06:33:53 PM 41.8875 -85.5006 97° East 448 516 31,000  Level Chicago Center
Mon 06:34:55 PM 41.8717 -85.3319 97° East 451 519 31,000  Level Chicago Center
Mon 06:35:58 PM 41.8547 -85.1658 98° East 443 510 31,000  Level Chicago Center
Mon 06:37:00 PM 41.8383 -85.0000 98° East 446 513 31,000  Level Chicago Center
Mon 06:38:02 PM 41.8219 -84.8375 98° East 439 505 31,000  Level Chicago Center
Mon 06:39:04 PM 41.8039 -84.6750 98° East 438 504 31,000  Level Chicago Center
Mon 06:40:13 PM 41.7836 -84.4708 98° East 443 510 31,000  Level Cleveland Center
Mon 06:41:13 PM 41.7764 -84.3117 93° East 437 503 31,000  Level Cleveland Center
Mon 06:42:13 PM 41.7753 -84.1500 90° East 432 497 31,000  Level Cleveland Center
Mon 06:43:13 PM 41.7717 -83.9883 92° East 432 497 31,000  Level Cleveland Center
Mon 06:44:13 PM 41.7703 -83.8239 91° East 432 497 31,000  Level Cleveland Center
Mon 06:45:13 PM 41.7706 -83.6625 90° East 432 497 31,000  Level Cleveland Center
Mon 06:46:13 PM 41.7644 -83.5008 93° East 437 503 31,000  Level Cleveland Center
Mon 06:47:13 PM 41.7475 -83.3386 98° East 444 511 31,000  Level Cleveland Center
Mon 06:48:13 PM 41.7306 -83.1736 98° East 444 511 31,000  Level Cleveland Center
Mon 06:49:12 PM 41.7153 -83.0117 97° East 444 511 31,000  Level Cleveland Center
Mon 06:50:13 PM 41.7000 -82.8497 97° East 444 511 31,000  Level Cleveland Center
Mon 06:51:13 PM 41.6819 -82.6906 99° East 444 511 31,000  Level Cleveland Center
Mon 06:52:13 PM 41.6661 -82.5317 98° East 439 505 31,000  Level Cleveland Center
Mon 06:53:13 PM 41.6500 -82.3672 97° East 439 505 31,000  Level Cleveland Center
Mon 06:54:13 PM 41.6356 -82.2194 97° East 439 505 31,000  Level Cleveland Center
Mon 06:55:13 PM 41.6169 -82.0608 99° East 439 505 31,000  Level Cleveland Center
Mon 06:56:13 PM 41.5961 -81.8825 99° East 439 505 31,000  Level Cleveland Center
Mon 06:57:13 PM 41.5811 -81.7294 97° East 429 494 31,000  Level Cleveland Center
Mon 06:58:13 PM 41.5639 -81.5767 99° East 424 488 31,000  Level Cleveland Center
Mon 06:59:13 PM 41.5461 -81.4211 99° East 424 488 31,000  Level Cleveland Center
Mon 07:00:13 PM 41.5286 -81.2656 98° East 424 488 31,000  Level Cleveland Center
Mon 07:01:12 PM 41.5106 -81.1128 99° East 424 488 31,000  Level Cleveland Center
Mon 07:02:13 PM 41.4986 -80.9769 97° East 424 488 31,000  Level Cleveland Center
Mon 07:03:13 PM 41.4844 -80.8186 97° East 424 488 31,000  Level Cleveland Center
Mon 07:04:12 PM 41.4722 -80.6636 96° East 424 488 31,000  Level Cleveland Center
Mon 07:05:13 PM 41.4575 -80.5111 97° East 424 488 31,000  Level Cleveland Center
Mon 07:06:12 PM 41.4450 -80.3617 96° East 419 482 31,000  Level Cleveland Center
Mon 07:07:13 PM 41.4300 -80.2064 97° East 419 482 31,000  Level Cleveland Center
Mon 07:08:12 PM 41.4167 -80.0514 96° East 419 482 31,000  Level Cleveland Center
Mon 07:09:12 PM 41.3969 -79.8744 98° East 425 489 31,000  Level Cleveland Center
Mon 07:10:13 PM 41.3814 -79.7114 97° East 436 502 31,000  Level Cleveland Center
Mon 07:11:13 PM 41.3675 -79.5594 97° East 449 517 31,000  Level Cleveland Center
Mon 07:12:13 PM 41.3514 -79.4019 98° East 442 509 31,000  Level Cleveland Center
Mon 07:13:13 PM 41.3306 -79.2200 99° East 442 509 31,000  Level Cleveland Center
Mon 07:14:13 PM 41.3142 -79.0572 98° East 442 509 31,000  Level Cleveland Center
Mon 07:15:12 PM 41.2994 -78.9081 97° East 449 517 31,000  Level Cleveland Center
Mon 07:16:12 PM 41.2825 -78.7456 98° East 449 517 31,000  Level Cleveland Center
Mon 07:17:13 PM 41.2650 -78.5803 98° East 444 511 31,000  Level Cleveland Center
Mon 07:18:13 PM 41.2450 -78.4014 98° East 444 511 31,000  Level Cleveland Center
Mon 07:19:29 PM 41.2206 -78.1944 99° East 435 501 31,000 -358 Level New York Center
Mon 07:20:27 PM 41.2017 -78.0294 99° East 441 507 30,200 -864 Descending New York Center
Mon 07:21:27 PM 41.1783 -77.8617 100° East 446 513 29,300 -942 Descending New York Center
Mon 07:22:28 PM 41.1589 -77.6967 99° East 453 521 28,300 -934 Descending New York Center
Mon 07:23:29 PM 41.1372 -77.5292 100° East 453 521 27,400 -942 Descending New York Center
Mon 07:24:29 PM 41.1156 -77.3617 100° East 453 521 26,400 -915 Descending New York Center
Mon 07:25:27 PM 41.0933 -77.1972 100° East 453 521 25,600 -908 Descending New York Center
Mon 07:26:28 PM 41.0728 -77.0356 100° East 453 521 24,600 -1,190 Descending New York Center
Mon 07:27:28 PM 41.0517 -76.8794 100° East 443 510 23,200 -1,400 Descending New York Center
Mon 07:28:28 PM 41.0303 -76.7261 100° East 433 498 21,800 -1,400 Descending New York Center
Mon 07:29:28 PM 41.0003 -76.5778 105° East 427 491 20,400 -1,350 Descending New York Center
Mon 07:30:28 PM 40.9658 -76.4292 107° East 421 484 19,100 -1,150 Descending New York Center
Mon 07:31:28 PM 40.9328 -76.2892 107° East 408 470 18,100 -555 Descending New York Center
Mon 07:32:27 PM 40.9031 -76.1658 108° East 397 457 18,000 -250 Descending New York Center
Mon 07:33:28 PM 40.8661 -76.0119 108° East 392 451 17,600 -1,488 Descending New York Center
Mon 07:34:28 PM 40.8325 -75.8778 108° East 387 445 15,000 -2,281 Descending New York Center
Mon 07:35:29 PM 40.8019 -75.7603 109° East 382 440 13,000 -992 Descending New York Center
Mon 07:36:29 PM 40.7697 -75.6347 109° East 366 421 13,000  Level New York Center
Mon 07:37:27 PM 40.7289 -75.5111 114° Southeast 359 413 13,000 -100 Level New York Center
Mon 07:38:29 PM 40.6922 -75.3883 111° Southeast 365 420 12,800 -900 Descending New York Center
Mon 07:39:27 PM 40.6531 -75.2681 113° Southeast 357 411 11,200 -1,361 Descending New York Center
Mon 07:40:28 PM 40.6119 -75.1394 113° Southeast 352 405 10,100 -590 Descending New York Center
Mon 07:41:29 PM 40.5725 -75.0250 114° Southeast 347 399 10,000 -50 Descending New York Center
Mon 07:42:27 PM 40.5389 -74.9111 111° Southeast 342 394 10,000 49 Level New York Center
Mon 07:43:31 PM 40.5000 -74.8000 115° Southeast 295 339 10,100  Climbing New York TRACON
Mon 07:44:31 PM 40.4833 -74.7000 102° East 295 339 10,000 -667 Descending New York TRACON
Mon 07:45:37 PM 40.4500 -74.5833 111° Southeast 287 330 8,700 -950 Descending New York TRACON
Mon 07:46:31 PM 40.4333 -74.5000 105° East 278 320 8,100 -316 Descending New York TRACON
Mon 07:47:31 PM 40.4333 -74.4167 90° East 238 274 8,100 -450 Level New York TRACON
Mon 07:48:31 PM 40.4500 -74.3333 75° East 233 268 7,200 -500 Descending New York TRACON
Mon 07:49:31 PM 40.4667 -74.2500 75° East 231 266 7,100 -100 Descending New York TRACON
Mon 07:50:31 PM 40.5000 -74.1833 57° Northeast 212 244 7,000 -600 Descending New York TRACON
Mon 07:51:31 PM 40.5167 -74.1167 72° East 180 207 5,900 -1,250 Descending New York TRACON
Mon 07:52:31 PM 40.5500 -74.0667 49° Northeast 179 206 4,500 -1,368 Descending New York TRACON
Mon 07:53:25 PM 40.5833 -74.0333 37° Northeast 180 207 3,300 -621 Descending New York TRACON
Mon 07:55:25 PM 40.6667 -73.9667 31° Northeast 168 193 2,700 -533 Descending New York TRACON
Mon 07:56:25 PM 40.7000 -73.9333 37° Northeast 162 186 1,700 -1,000 Descending New York TRACON

Login

Don't have an account? Register now (free) for customized features, flight alerts, and more!